Time;durP1;ratioP1;P1;durP2;ratioP2;P2;SDS_P1;SDS_P2;PMS_P1;PMS_P2;Temp;Humidity;BMP_temperature;BMP_pressure;BME280_temperature;BME280_humidity;BME280_pressure;Samples;Min_cycle;Max_cycle;Signal;HPM_P1;HPM_P2
2022/08/20 00:00:35;;;;;;;1.60;1.40;;;;;;;;;;4970569;28;20284;-67
2022/08/20 00:03:03;;;;;;;1.65;1.55;;;;;;;;;;4969731;28;20240;-65
2022/08/20 00:05:33;;;;;;;1.30;1.30;;;;;;;;;;4970174;28;20210;-66
2022/08/20 00:08:00;;;;;;;1.40;1.40;;;;;;;;;;4969916;28;20740;-66
2022/08/20 00:10:28;;;;;;;1.40;1.40;;;;;;;;;;4969603;28;20222;-66
2022/08/20 00:12:56;;;;;;;1.17;1.17;;;;;;;;;;4969082;28;20572;-65
2022/08/20 00:15:27;;;;;;;1.42;1.42;;;;;;;;;;4969484;28;20249;-66
2022/08/20 00:17:54;;;;;;;1.30;1.30;;;;;;;;;;4969586;28;20226;-64
2022/08/20 00:20:23;;;;;;;1.50;1.50;;;;;;;;;;4969447;28;20273;-65
2022/08/20 00:22:51;;;;;;;1.33;1.17;;;;;;;;;;4969743;28;20860;-65
2022/08/20 00:25:18;;;;;;;1.60;1.50;;;;;;;;;;4968868;28;20693;-65
2022/08/20 00:27:45;;;;;;;1.98;1.48;;;;;;;;;;4969506;28;20198;-65
2022/08/20 00:30:13;;;;;;;1.55;1.48;;;;;;;;;;4967973;28;20265;-65
2022/08/20 00:32:44;;;;;;;1.45;1.45;;;;;;;;;;4967579;28;20198;-65
2022/08/20 00:35:11;;;;;;;1.25;1.20;;;;;;;;;;4969082;28;20206;-65
2022/08/20 00:37:38;;;;;;;1.52;1.42;;;;;;;;;;4961291;28;20277;-65
2022/08/20 00:40:08;;;;;;;1.40;1.40;;;;;;;;;;4960734;28;20210;-65
2022/08/20 00:42:40;;;;;;;1.38;1.30;;;;;;;;;;4968865;28;20236;-65
2022/08/20 00:45:08;;;;;;;1.40;1.40;;;;;;;;;;4969134;28;20211;-65
2022/08/20 00:47:35;;;;;;;1.40;1.40;;;;;;;;;;4969294;28;20209;-65
2022/08/20 00:50:05;;;;;;;1.58;1.27;;;;;;;;;;4969314;28;20213;-65
2022/08/20 00:52:32;;;;;;;1.13;1.13;;;;;;;;;;4969157;28;20313;-65
2022/08/20 00:55:00;;;;;;;1.50;1.20;;;;;;;;;;4968757;28;20277;-65
2022/08/20 00:57:31;;;;;;;1.40;1.40;;;;;;;;;;4968160;28;20700;-65
2022/08/20 00:59:59;;;;;;;1.20;1.20;;;;;;;;;;4968175;28;20225;-65
2022/08/20 01:02:28;;;;;;;2.35;1.30;;;;;;;;;;4968436;28;20303;-66
2022/08/20 01:04:56;;;;;;;1.60;1.50;;;;;;;;;;4975532;28;20268;-66
2022/08/20 01:07:31;;;;;;;1.20;1.20;;;;;;;;;;4977602;28;20559;-64
2022/08/20 01:09:58;;;;;;;1.13;1.13;;;;;;;;;;4966437;28;20748;-67
2022/08/20 01:12:26;;;;;;;1.15;1.15;;;;;;;;;;4968399;28;20206;-65
2022/08/20 01:14:55;;;;;;;1.95;1.30;;;;;;;;;;4957079;28;21011;-66
2022/08/20 01:17:24;;;;;;;1.20;1.20;;;;;;;;;;4955284;28;20237;-65
2022/08/20 01:19:53;;;;;;;1.33;1.33;;;;;;;;;;4968719;28;20229;-65
2022/08/20 01:25:09;;;;;;;1.15;1.02;;;;;;;;;;4958506;28;20313;-65
2022/08/20 01:27:38;;;;;;;1.00;1.00;;;;;;;;;;4969264;28;20317;-65
2022/08/20 01:30:06;;;;;;;1.10;1.10;;;;;;;;;;4968966;28;20222;-65
2022/08/20 01:32:33;;;;;;;1.75;1.00;;;;;;;;;;4969325;28;20924;-65
2022/08/20 01:35:00;;;;;;;0.95;0.95;;;;;;;;;;4969136;28;20288;-66
2022/08/20 01:37:27;;;;;;;1.17;1.17;;;;;;;;;;4969361;28;20254;-65
2022/08/20 01:39:54;;;;;;;1.05;1.05;;;;;;;;;;4969057;28;20454;-65
2022/08/20 01:42:23;;;;;;;0.80;0.80;;;;;;;;;;4971843;28;20760;-65
2022/08/20 01:44:52;;;;;;;0.75;0.75;;;;;;;;;;4959814;28;20203;-65
2022/08/20 01:47:21;;;;;;;0.80;0.80;;;;;;;;;;4983034;28;20300;-65
2022/08/20 01:49:50;;;;;;;1.00;1.00;;;;;;;;;;4962778;28;20206;-65
2022/08/20 01:52:22;;;;;;;0.95;0.95;;;;;;;;;;4972304;28;20685;-67
2022/08/20 01:54:50;;;;;;;1.08;1.08;;;;;;;;;;4972656;28;20214;-65
2022/08/20 01:57:19;;;;;;;1.17;0.90;;;;;;;;;;4972571;28;20212;-65
2022/08/20 01:59:48;;;;;;;0.93;0.93;;;;;;;;;;4972527;28;20261;-66
2022/08/20 02:02:16;;;;;;;1.00;1.00;;;;;;;;;;4971707;28;20218;-65
2022/08/20 02:04:43;;;;;;;0.85;0.85;;;;;;;;;;4972585;28;20206;-66
2022/08/20 02:07:13;;;;;;;0.70;0.70;;;;;;;;;;4972835;28;20206;-66
2022/08/20 02:09:41;;;;;;;1.00;1.00;;;;;;;;;;4972554;28;20203;-65
2022/08/20 02:12:09;;;;;;;0.80;0.80;;;;;;;;;;4972657;28;20215;-66
2022/08/20 02:14:36;;;;;;;0.90;0.90;;;;;;;;;;4971806;28;20210;-66
2022/08/20 02:17:05;;;;;;;0.63;0.63;;;;;;;;;;4972276;28;20249;-65
2022/08/20 02:19:37;;;;;;;0.85;0.85;;;;;;;;;;4972122;28;20719;-66
2022/08/20 02:22:09;;;;;;;0.80;0.80;;;;;;;;;;4962400;28;20288;-65
2022/08/20 02:24:36;;;;;;;0.70;0.70;;;;;;;;;;4971795;28;20226;-66
2022/08/20 02:27:04;;;;;;;0.88;0.85;;;;;;;;;;4972224;28;20623;-65
2022/08/20 02:29:31;;;;;;;0.90;0.90;;;;;;;;;;4972445;28;20265;-65
2022/08/20 02:31:58;;;;;;;0.63;0.63;;;;;;;;;;4971794;28;20215;-66
2022/08/20 02:34:25;;;;;;;0.70;0.70;;;;;;;;;;4972189;28;20290;-65
2022/08/20 02:36:54;;;;;;;0.65;0.65;;;;;;;;;;4972387;28;20214;-66
2022/08/20 02:39:21;;;;;;;0.60;0.60;;;;;;;;;;4972325;28;20210;-65
2022/08/20 02:41:49;;;;;;;0.70;0.70;;;;;;;;;;4970033;28;20942;-66
2022/08/20 02:44:17;;;;;;;0.88;0.88;;;;;;;;;;4971948;28;20250;-66
2022/08/20 02:46:44;;;;;;;0.73;0.73;;;;;;;;;;4971777;28;20210;-66
2022/08/20 02:49:11;;;;;;;0.90;0.90;;;;;;;;;;4972247;28;20218;-66
2022/08/20 02:51:38;;;;;;;0.88;0.88;;;;;;;;;;4971191;28;20257;-66
2022/08/20 02:54:07;;;;;;;0.80;0.73;;;;;;;;;;4971102;28;20207;-66
2022/08/20 02:56:34;;;;;;;0.90;0.90;;;;;;;;;;4970986;28;20211;-66
2022/08/20 02:59:01;;;;;;;0.73;0.73;;;;;;;;;;4971462;28;20569;-65
2022/08/20 03:01:29;;;;;;;0.98;0.98;;;;;;;;;;4971079;28;20293;-66
2022/08/20 03:03:57;;;;;;;0.77;0.77;;;;;;;;;;4971137;28;20238;-66
2022/08/20 03:06:25;;;;;;;0.65;0.65;;;;;;;;;;4970984;28;20658;-66
2022/08/20 03:08:52;;;;;;;1.00;1.00;;;;;;;;;;4970910;28;20210;-65
2022/08/20 03:11:20;;;;;;;1.02;1.00;;;;;;;;;;4970305;28;20643;-66
2022/08/20 03:13:47;;;;;;;1.17;0.90;;;;;;;;;;4970513;28;20264;-66
2022/08/20 03:16:15;;;;;;;0.80;0.80;;;;;;;;;;4970741;28;20206;-66
2022/08/20 03:18:43;;;;;;;0.90;0.90;;;;;;;;;;4970783;28;20237;-66
2022/08/20 03:21:11;;;;;;;0.70;0.70;;;;;;;;;;4970455;28;20679;-66
2022/08/20 03:23:39;;;;;;;0.90;0.90;;;;;;;;;;4970661;28;20238;-66
2022/08/20 03:26:06;;;;;;;0.65;0.65;;;;;;;;;;4953175;28;20227;-66
2022/08/20 03:28:35;;;;;;;0.80;0.80;;;;;;;;;;4970161;28;20284;-66
2022/08/20 03:31:02;;;;;;;0.75;0.75;;;;;;;;;;4970495;28;20276;-65
2022/08/20 03:33:30;;;;;;;0.77;0.77;;;;;;;;;;4970318;28;20624;-66
2022/08/20 03:35:57;;;;;;;1.10;1.02;;;;;;;;;;4970198;28;20206;-65
2022/08/20 03:38:25;;;;;;;0.80;0.80;;;;;;;;;;4970586;28;20213;-66
2022/08/20 03:40:52;;;;;;;0.80;0.80;;;;;;;;;;4969999;28;20264;-66
2022/08/20 03:43:19;;;;;;;0.80;0.80;;;;;;;;;;4970041;28;20802;-66
2022/08/20 03:45:47;;;;;;;0.80;0.80;;;;;;;;;;4970076;28;20214;-66
2022/08/20 03:48:16;;;;;;;1.08;1.00;;;;;;;;;;4951393;29;20642;-65
2022/08/20 03:50:43;;;;;;;0.68;0.68;;;;;;;;;;4968182;28;20210;-65
2022/08/20 03:53:11;;;;;;;0.60;0.60;;;;;;;;;;4970109;28;20253;-65
2022/08/20 03:55:38;;;;;;;0.60;0.60;;;;;;;;;;4969985;28;20210;-66
2022/08/20 03:58:06;;;;;;;1.75;0.85;;;;;;;;;;4970389;28;20221;-65
2022/08/20 04:00:35;;;;;;;0.77;0.77;;;;;;;;;;4969987;28;20581;-65
2022/08/20 04:03:04;;;;;;;0.70;0.70;;;;;;;;;;4970407;28;20608;-65
2022/08/20 04:05:32;;;;;;;0.80;0.80;;;;;;;;;;4969515;28;20207;-65
2022/08/20 04:08:00;;;;;;;0.60;0.60;;;;;;;;;;4970636;28;20622;-65
2022/08/20 04:10:27;;;;;;;0.80;0.80;;;;;;;;;;4970559;28;20503;-66
2022/08/20 04:12:54;;;;;;;0.80;0.80;;;;;;;;;;4969821;28;20641;-65
2022/08/20 04:15:23;;;;;;;0.70;0.70;;;;;;;;;;4969450;28;20206;-65
2022/08/20 04:17:51;;;;;;;0.80;0.80;;;;;;;;;;4970394;28;20363;-65
2022/08/20 04:20:22;;;;;;;0.82;0.70;;;;;;;;;;4969670;28;20628;-67
2022/08/20 04:22:49;;;;;;;5.60;0.80;;;;;;;;;;4970479;28;20332;-65
2022/08/20 04:25:16;;;;;;;1.48;0.85;;;;;;;;;;4969627;28;20227;-65
2022/08/20 04:27:44;;;;;;;2.38;0.98;;;;;;;;;;4969628;28;20242;-66
2022/08/20 04:30:13;;;;;;;1.42;0.68;;;;;;;;;;4969777;28;20236;-65
2022/08/20 04:32:40;;;;;;;0.65;0.65;;;;;;;;;;4970184;28;20684;-65
2022/08/20 04:35:08;;;;;;;0.77;0.77;;;;;;;;;;4969480;28;20285;-65
2022/08/20 04:37:38;;;;;;;0.80;0.80;;;;;;;;;;4970190;28;20669;-65
2022/08/20 04:42:51;;;;;;;0.90;0.60;;;;;;;;;;4970172;28;20206;-65
2022/08/20 04:45:18;;;;;;;0.85;0.82;;;;;;;;;;4969484;28;20230;-65
2022/08/20 04:47:45;;;;;;;0.73;0.73;;;;;;;;;;4969430;28;20321;-65
2022/08/20 04:50:13;;;;;;;0.60;0.60;;;;;;;;;;4970004;28;20265;-65
2022/08/20 04:52:41;;;;;;;1.60;0.80;;;;;;;;;;4969861;28;20199;-64
2022/08/20 04:55:09;;;;;;;1.33;0.73;;;;;;;;;;4969721;28;20217;-65
2022/08/20 04:57:37;;;;;;;0.70;0.70;;;;;;;;;;4969883;28;20210;-65
2022/08/20 05:00:05;;;;;;;0.60;0.60;;;;;;;;;;4969744;28;20302;-65
2022/08/20 05:02:34;;;;;;;0.60;0.60;;;;;;;;;;4970024;28;20206;-65
2022/08/20 05:05:01;;;;;;;0.82;0.82;;;;;;;;;;4969644;28;20233;-65
2022/08/20 05:07:28;;;;;;;1.05;0.70;;;;;;;;;;4969649;28;20206;-65
2022/08/20 05:09:56;;;;;;;0.60;0.60;;;;;;;;;;4970076;28;20218;-65
2022/08/20 05:12:23;;;;;;;2.55;0.60;;;;;;;;;;4968774;28;20215;-65
2022/08/20 05:14:50;;;;;;;0.70;0.70;;;;;;;;;;4970066;28;20268;-65
2022/08/20 05:17:17;;;;;;;0.60;0.60;;;;;;;;;;4971821;28;20272;-65
2022/08/20 05:19:46;;;;;;;0.60;0.60;;;;;;;;;;4973704;28;20242;-65
2022/08/20 05:22:13;;;;;;;0.50;0.50;;;;;;;;;;4973445;28;20202;-65
2022/08/20 05:24:40;;;;;;;0.82;0.82;;;;;;;;;;4973596;28;20301;-66
2022/08/20 05:27:09;;;;;;;1.05;1.05;;;;;;;;;;4972836;28;20206;-66
2022/08/20 05:29:36;;;;;;;0.60;0.60;;;;;;;;;;4973041;28;20221;-65
2022/08/20 05:32:03;;;;;;;0.65;0.65;;;;;;;;;;4972922;28;20217;-66
2022/08/20 05:34:30;;;;;;;3.65;0.70;;;;;;;;;;4972880;28;20625;-65
2022/08/20 05:36:58;;;;;;;0.80;0.80;;;;;;;;;;4972028;28;20221;-66
2022/08/20 05:39:25;;;;;;;0.90;0.90;;;;;;;;;;4971469;28;20226;-66
2022/08/20 05:41:52;;;;;;;0.63;0.63;;;;;;;;;;4971373;28;20692;-66
2022/08/20 05:44:21;;;;;;;0.88;0.88;;;;;;;;;;4969707;28;20591;-65
2022/08/20 05:46:48;;;;;;;0.70;0.70;;;;;;;;;;4972765;28;20221;-66
2022/08/20 05:49:16;;;;;;;1.75;0.77;;;;;;;;;;4980362;28;20591;-66
2022/08/20 05:51:43;;;;;;;0.98;0.98;;;;;;;;;;4978824;28;20229;-66
2022/08/20 05:54:10;;;;;;;1.45;1.45;;;;;;;;;;4984675;28;20205;-66
2022/08/20 05:56:38;;;;;;;1.70;1.70;;;;;;;;;;4973286;28;20896;-65
2022/08/20 05:59:06;;;;;;;1.70;1.70;;;;;;;;;;4971204;28;20600;-65
2022/08/20 06:01:36;;;;;;;1.63;1.58;;;;;;;;;;4972948;28;20215;-66
2022/08/20 06:06:49;;;;;;;1.85;1.58;;;;;;;;;;4970336;28;20303;-64
2022/08/20 06:09:17;;;;;;;1.48;1.48;;;;;;;;;;4971365;28;20301;-65
2022/08/20 06:11:44;;;;;;;1.67;1.58;;;;;;;;;;4972235;28;20202;-64
2022/08/20 06:14:11;;;;;;;1.80;1.80;;;;;;;;;;4971492;28;20265;-65
2022/08/20 06:16:40;;;;;;;1.60;1.60;;;;;;;;;;4972008;28;20211;-65
2022/08/20 06:19:07;;;;;;;2.00;1.98;;;;;;;;;;4972694;28;20238;-65
2022/08/20 06:21:34;;;;;;;1.63;1.63;;;;;;;;;;4973185;28;20214;-66
2022/08/20 06:24:01;;;;;;;2.50;2.40;;;;;;;;;;4972478;28;20231;-66
2022/08/20 06:26:28;;;;;;;2.67;2.47;;;;;;;;;;4972925;28;20265;-66
2022/08/20 06:28:55;;;;;;;1.98;1.92;;;;;;;;;;4971261;28;20210;-65
2022/08/20 06:31:22;;;;;;;2.80;2.70;;;;;;;;;;4971981;28;20273;-65
2022/08/20 06:33:50;;;;;;;2.55;2.45;;;;;;;;;;4972003;28;20202;-67
2022/08/20 06:36:17;;;;;;;2.97;2.50;;;;;;;;;;4972332;28;20247;-66
2022/08/20 06:38:45;;;;;;;2.70;2.60;;;;;;;;;;4969245;28;20215;-65
2022/08/20 06:41:12;;;;;;;2.83;2.63;;;;;;;;;;4971616;28;20581;-67
2022/08/20 06:43:39;;;;;;;3.10;2.90;;;;;;;;;;4971891;28;20202;-66
2022/08/20 06:46:06;;;;;;;2.55;2.45;;;;;;;;;;4971978;28;20207;-66
2022/08/20 06:48:33;;;;;;;3.35;3.15;;;;;;;;;;4971676;28;20209;-66
2022/08/20 06:51:01;;;;;;;3.00;2.80;;;;;;;;;;4971836;28;20265;-66
2022/08/20 06:53:28;;;;;;;3.40;3.20;;;;;;;;;;4971570;28;20226;-67
2022/08/20 06:55:58;;;;;;;3.17;3.03;;;;;;;;;;4969233;28;20653;-67
2022/08/20 06:58:25;;;;;;;4.43;3.30;;;;;;;;;;4971828;28;20206;-66
2022/08/20 07:00:52;;;;;;;3.15;2.95;;;;;;;;;;4971471;28;20207;-66
2022/08/20 07:03:19;;;;;;;3.30;3.10;;;;;;;;;;4971941;28;20616;-66
2022/08/20 07:05:46;;;;;;;3.30;3.10;;;;;;;;;;4971929;28;20701;-66
2022/08/20 07:08:17;;;;;;;3.50;3.25;;;;;;;;;;4970877;28;20265;-67
2022/08/20 07:10:45;;;;;;;3.20;3.00;;;;;;;;;;4971775;28;20203;-67
2022/08/20 07:13:13;;;;;;;2.92;2.80;;;;;;;;;;4971631;28;20203;-66
2022/08/20 07:15:40;;;;;;;3.47;3.17;;;;;;;;;;4971047;28;20374;-66
2022/08/20 07:18:07;;;;;;;3.15;2.95;;;;;;;;;;4971969;28;20231;-66
2022/08/20 07:20:37;;;;;;;3.08;2.85;;;;;;;;;;4971834;28;20246;-66
2022/08/20 07:23:04;;;;;;;3.08;2.75;;;;;;;;;;4973133;28;20202;-65
2022/08/20 07:25:33;;;;;;;3.22;3.03;;;;;;;;;;4972891;28;20230;-65
2022/08/20 07:28:01;;;;;;;3.47;3.17;;;;;;;;;;4959711;28;20207;-65
2022/08/20 07:33:13;;;;;;;3.38;3.08;;;;;;;;;;4971526;28;20213;-65
2022/08/20 07:35:41;;;;;;;3.95;2.90;;;;;;;;;;4970693;28;20581;-67
2022/08/20 07:38:08;;;;;;;3.25;3.13;;;;;;;;;;4971119;28;20257;-66
2022/08/20 07:40:36;;;;;;;2.30;2.20;;;;;;;;;;4970214;28;20677;-64
2022/08/20 07:43:03;;;;;;;2.50;2.40;;;;;;;;;;4971005;28;20210;-66
2022/08/20 07:45:31;;;;;;;1.73;1.70;;;;;;;;;;4970562;28;20292;-65
2022/08/20 07:48:06;;;;;;;1.67;1.58;;;;;;;;;;4970470;28;20743;-64
2022/08/20 07:50:33;;;;;;;1.48;1.48;;;;;;;;;;4970716;28;20210;-63
2022/08/20 07:53:00;;;;;;;1.33;1.33;;;;;;;;;;4970986;28;20285;-65
2022/08/20 07:55:40;;;;;;;1.13;1.13;;;;;;;;;;4970079;28;20265;-65
2022/08/20 07:58:10;;;;;;;0.60;0.60;;;;;;;;;;4970134;28;20277;-65
2022/08/20 08:00:37;;;;;;;0.60;0.60;;;;;;;;;;4968219;28;20214;-63
2022/08/20 08:03:04;;;;;;;0.68;0.68;;;;;;;;;;4968644;28;20909;-64
2022/08/20 08:05:32;;;;;;;0.70;0.70;;;;;;;;;;4967823;28;20226;-64
2022/08/20 08:07:59;;;;;;;0.82;0.82;;;;;;;;;;4970537;28;20210;-64
2022/08/20 08:10:27;;;;;;;0.77;0.77;;;;;;;;;;4970462;28;20257;-64
2022/08/20 08:12:56;;;;;;;0.77;0.77;;;;;;;;;;4970745;28;20233;-64
2022/08/20 08:15:26;;;;;;;0.70;0.70;;;;;;;;;;4969623;28;20688;-65
2022/08/20 08:17:54;;;;;;;0.98;0.98;;;;;;;;;;4970130;28;20685;-64
2022/08/20 08:20:22;;;;;;;0.90;0.90;;;;;;;;;;4970235;28;20226;-64
2022/08/20 08:22:49;;;;;;;0.68;0.68;;;;;;;;;;4969577;28;20206;-64
2022/08/20 08:25:16;;;;;;;0.90;0.90;;;;;;;;;;4969758;28;20234;-64
2022/08/20 08:27:47;;;;;;;1.13;0.90;;;;;;;;;;4969415;28;20206;-65
2022/08/20 08:30:15;;;;;;;1.20;1.10;;;;;;;;;;4969783;28;20225;-65
2022/08/20 08:35:25;;;;;;;0.85;0.85;;;;;;;;;;4961025;28;20202;-64
2022/08/20 08:37:52;;;;;;;0.98;0.98;;;;;;;;;;4969850;28;20210;-65
2022/08/20 08:40:20;;;;;;;0.82;0.82;;;;;;;;;;4969870;28;20317;-64
2022/08/20 08:42:56;;;;;;;2.03;0.75;;;;;;;;;;4968743;28;20269;-66
2022/08/20 08:45:25;;;;;;;0.70;0.70;;;;;;;;;;4967251;28;20225;-64
2022/08/20 08:47:54;;;;;;;0.80;0.80;;;;;;;;;;4967385;28;20214;-63
2022/08/20 08:50:23;;;;;;;0.70;0.70;;;;;;;;;;4967604;28;20340;-64
2022/08/20 08:52:51;;;;;;;0.75;0.75;;;;;;;;;;4974334;28;20649;-64
2022/08/20 08:55:20;;;;;;;0.80;0.80;;;;;;;;;;4975953;28;20237;-64
2022/08/20 08:57:48;;;;;;;0.90;0.90;;;;;;;;;;4975553;28;20205;-63
2022/08/20 09:00:17;;;;;;;0.70;0.70;;;;;;;;;;4976086;28;20202;-66
2022/08/20 09:02:55;;;;;;;0.70;0.70;;;;;;;;;;4974695;28;20641;-66
2022/08/20 09:05:24;;;;;;;0.70;0.70;;;;;;;;;;4975354;28;20284;-67
2022/08/20 09:07:53;;;;;;;0.60;0.60;;;;;;;;;;4975085;28;20228;-66
2022/08/20 09:10:21;;;;;;;0.70;0.70;;;;;;;;;;4974064;28;20305;-66
2022/08/20 09:12:48;;;;;;;0.65;0.65;;;;;;;;;;4975544;28;20297;-65
2022/08/20 09:15:15;;;;;;;1.75;0.70;;;;;;;;;;4975686;28;20206;-66
2022/08/20 09:17:42;;;;;;;1.05;0.80;;;;;;;;;;4974932;28;20640;-66
2022/08/20 09:20:11;;;;;;;0.80;0.80;;;;;;;;;;4975625;28;20242;-67
2022/08/20 09:22:38;;;;;;;0.70;0.70;;;;;;;;;;4975348;28;20218;-66
2022/08/20 09:25:06;;;;;;;0.80;0.80;;;;;;;;;;4975231;28;20222;-66
2022/08/20 09:27:33;;;;;;;1.00;1.00;;;;;;;;;;4975187;28;20526;-66
2022/08/20 09:30:00;;;;;;;0.70;0.70;;;;;;;;;;4975191;28;20262;-66
2022/08/20 09:32:27;;;;;;;0.80;0.80;;;;;;;;;;4975328;28;20218;-66
2022/08/20 09:34:56;;;;;;;0.57;0.57;;;;;;;;;;4975031;28;20668;-66
2022/08/20 09:37:26;;;;;;;0.95;0.95;;;;;;;;;;4975309;28;20214;-66
2022/08/20 09:39:53;;;;;;;0.70;0.70;;;;;;;;;;4974999;28;20213;-66
2022/08/20 09:42:22;;;;;;;0.60;0.60;;;;;;;;;;4975414;28;20284;-67
2022/08/20 09:44:49;;;;;;;0.75;0.75;;;;;;;;;;4974130;28;20718;-66
2022/08/20 09:47:17;;;;;;;0.65;0.65;;;;;;;;;;4975236;28;20206;-66
2022/08/20 09:49:44;;;;;;;0.60;0.60;;;;;;;;;;4975433;28;20279;-66
2022/08/20 09:52:18;;;;;;;0.75;0.75;;;;;;;;;;4975411;28;20217;-67
2022/08/20 09:54:47;;;;;;;1.58;0.80;;;;;;;;;;4974296;28;20202;-66
2022/08/20 09:57:15;;;;;;;0.70;0.70;;;;;;;;;;4976039;28;20214;-66
2022/08/20 09:59:42;;;;;;;0.80;0.80;;;;;;;;;;4977472;28;20257;-66
2022/08/20 10:02:09;;;;;;;0.63;0.63;;;;;;;;;;4971424;28;20210;-66
2022/08/20 10:04:36;;;;;;;0.73;0.73;;;;;;;;;;4971494;28;20265;-66
2022/08/20 10:07:07;;;;;;;0.80;0.80;;;;;;;;;;4971879;28;20674;-66
2022/08/20 10:09:34;;;;;;;0.90;0.77;;;;;;;;;;4971717;28;20776;-66
2022/08/20 10:12:03;;;;;;;0.80;0.80;;;;;;;;;;4971802;28;20218;-66
2022/08/20 10:14:30;;;;;;;0.68;0.68;;;;;;;;;;4968747;28;20207;-64
2022/08/20 10:16:57;;;;;;;0.60;0.60;;;;;;;;;;4970646;28;20771;-67
2022/08/20 10:19:25;;;;;;;0.60;0.60;;;;;;;;;;4968971;28;20234;-66
2022/08/20 10:21:53;;;;;;;0.50;0.50;;;;;;;;;;4971628;28;20627;-65
2022/08/20 10:24:20;;;;;;;0.40;0.40;;;;;;;;;;4970942;28;20618;-65
2022/08/20 10:26:48;;;;;;;0.40;0.40;;;;;;;;;;4971609;28;20233;-66
2022/08/20 10:29:17;;;;;;;0.50;0.50;;;;;;;;;;4971953;28;20234;-66
2022/08/20 10:31:44;;;;;;;0.47;0.47;;;;;;;;;;4971524;28;20211;-66
2022/08/20 10:34:11;;;;;;;0.40;0.40;;;;;;;;;;4971859;28;20823;-66
2022/08/20 10:36:38;;;;;;;0.55;0.55;;;;;;;;;;4972122;28;20222;-66
2022/08/20 10:39:05;;;;;;;0.52;0.52;;;;;;;;;;4971469;28;20215;-67
2022/08/20 10:41:32;;;;;;;0.55;0.55;;;;;;;;;;4971246;28;20582;-66
2022/08/20 10:43:59;;;;;;;0.30;0.30;;;;;;;;;;4971170;28;20210;-65
2022/08/20 10:46:27;;;;;;;0.40;0.40;;;;;;;;;;4970708;28;20226;-66
2022/08/20 10:48:54;;;;;;;0.40;0.40;;;;;;;;;;4971322;28;20425;-65
2022/08/20 10:51:21;;;;;;;0.35;0.35;;;;;;;;;;4968171;28;20203;-65
2022/08/20 10:53:48;;;;;;;0.20;0.20;;;;;;;;;;4973795;28;20210;-63
2022/08/20 10:56:15;;;;;;;0.30;0.30;;;;;;;;;;4963450;28;20207;-63
2022/08/20 10:58:42;;;;;;;0.20;0.20;;;;;;;;;;4965542;28;20249;-64
2022/08/20 11:01:10;;;;;;;0.22;0.20;;;;;;;;;;4974832;28;20213;-63
2022/08/20 11:03:38;;;;;;;0.28;0.20;;;;;;;;;;4973761;28;20268;-63
2022/08/20 11:06:05;;;;;;;0.17;0.17;;;;;;;;;;4971484;28;20716;-64
2022/08/20 11:08:32;;;;;;;0.30;0.30;;;;;;;;;;4970861;28;20258;-64
2022/08/20 11:10:59;;;;;;;0.10;0.10;;;;;;;;;;4970923;28;20609;-63
2022/08/20 11:13:26;;;;;;;0.10;0.10;;;;;;;;;;4970880;28;20211;-63
2022/08/20 11:15:53;;;;;;;0.13;0.13;;;;;;;;;;4971307;28;20703;-63
2022/08/20 11:18:20;;;;;;;0.03;0.03;;;;;;;;;;4971289;28;20226;-63
2022/08/20 11:20:48;;;;;;;0.17;0.17;;;;;;;;;;4971318;28;20245;-63
2022/08/20 11:23:15;;;;;;;0.10;0.10;;;;;;;;;;4970254;28;20214;-63
2022/08/20 11:25:42;;;;;;;0.10;0.10;;;;;;;;;;4970877;28;20234;-62
2022/08/20 11:28:09;;;;;;;0.10;0.10;;;;;;;;;;4971054;28;20227;-63
2022/08/20 11:30:37;;;;;;;0.10;0.10;;;;;;;;;;4971412;28;20213;-63
2022/08/20 11:33:04;;;;;;;0.10;0.10;;;;;;;;;;4971558;28;20216;-64
2022/08/20 11:35:32;;;;;;;0.10;0.10;;;;;;;;;;4971235;28;20194;-65
2022/08/20 11:38:01;;;;;;;0.10;0.10;;;;;;;;;;4971289;28;20233;-64
2022/08/20 11:40:29;;;;;;;0.20;0.20;;;;;;;;;;4971016;28;20228;-64
2022/08/20 11:42:56;;;;;;;0.20;0.20;;;;;;;;;;4970428;28;20199;-68
2022/08/20 11:45:23;;;;;;;0.20;0.20;;;;;;;;;;4971271;28;20217;-67
2022/08/20 11:47:50;;;;;;;0.38;0.20;;;;;;;;;;4970874;28;20297;-67
2022/08/20 11:50:18;;;;;;;0.20;0.20;;;;;;;;;;4971176;28;20262;-66
2022/08/20 11:52:45;;;;;;;0.20;0.20;;;;;;;;;;4970761;28;20632;-66
2022/08/20 11:55:15;;;;;;;0.10;0.10;;;;;;;;;;4970850;28;20211;-68
2022/08/20 11:57:43;;;;;;;0.13;0.13;;;;;;;;;;4970846;28;20632;-66
2022/08/20 12:00:13;;;;;;;0.20;0.20;;;;;;;;;;4970811;28;20669;-66
2022/08/20 12:02:40;;;;;;;0.20;0.20;;;;;;;;;;4970661;28;20585;-67
2022/08/20 12:05:08;;;;;;;0.17;0.17;;;;;;;;;;4970880;28;20297;-66
2022/08/20 12:07:35;;;;;;;0.10;0.10;;;;;;;;;;4969939;28;20277;-66
2022/08/20 12:10:02;;;;;;;0.10;0.10;;;;;;;;;;4973322;28;20214;-66
2022/08/20 12:12:30;;;;;;;0.10;0.10;;;;;;;;;;4970147;28;20696;-66
2022/08/20 12:14:57;;;;;;;0.20;0.20;;;;;;;;;;4969749;28;20207;-66
2022/08/20 12:17:26;;;;;;;0.40;0.40;;;;;;;;;;4970967;28;20293;-67
2022/08/20 12:19:54;;;;;;;0.45;0.45;;;;;;;;;;4968720;28;20250;-66
2022/08/20 12:22:21;;;;;;;0.20;0.20;;;;;;;;;;4970122;28;20217;-65
2022/08/20 12:24:48;;;;;;;0.30;0.30;;;;;;;;;;4969811;28;20214;-65
2022/08/20 12:27:16;;;;;;;0.20;0.20;;;;;;;;;;4968879;28;20375;-65
2022/08/20 12:29:46;;;;;;;0.10;0.10;;;;;;;;;;4969708;28;20210;-65
2022/08/20 12:32:14;;;;;;;0.20;0.20;;;;;;;;;;4987853;28;20278;-65
2022/08/20 12:34:42;;;;;;;0.10;0.10;;;;;;;;;;4975772;28;20265;-65
2022/08/20 12:37:10;;;;;;;0.20;0.20;;;;;;;;;;4969313;28;20202;-65
2022/08/20 12:39:38;;;;;;;0.20;0.20;;;;;;;;;;4969125;28;20221;-65
2022/08/20 12:42:06;;;;;;;0.20;0.20;;;;;;;;;;4969675;28;20226;-66
2022/08/20 12:44:33;;;;;;;0.40;0.20;;;;;;;;;;4969180;28;20210;-66
2022/08/20 12:47:09;;;;;;;0.20;0.20;;;;;;;;;;4969463;28;20234;-64
2022/08/20 12:49:36;;;;;;;0.25;0.25;;;;;;;;;;4968834;28;20214;-64
2022/08/20 12:52:04;;;;;;;0.20;0.20;;;;;;;;;;4969101;28;20265;-63
2022/08/20 12:54:31;;;;;;;0.20;0.20;;;;;;;;;;4969116;28;20563;-62
2022/08/20 12:56:58;;;;;;;0.17;0.17;;;;;;;;;;4968973;28;20254;-64
2022/08/20 12:59:25;;;;;;;0.63;0.25;;;;;;;;;;4969813;28;20239;-61
2022/08/20 13:01:53;;;;;;;0.20;0.20;;;;;;;;;;4968346;28;20471;-64
2022/08/20 13:04:21;;;;;;;0.20;0.20;;;;;;;;;;4969260;28;20549;-63
2022/08/20 13:06:48;;;;;;;0.30;0.30;;;;;;;;;;4968154;28;20261;-63
2022/08/20 13:09:16;;;;;;;1.98;0.28;;;;;;;;;;4968808;28;20592;-63
2022/08/20 13:11:43;;;;;;;0.20;0.20;;;;;;;;;;4967947;28;20289;-63
2022/08/20 13:14:10;;;;;;;0.20;0.20;;;;;;;;;;4969365;28;20210;-65
2022/08/20 13:16:37;;;;;;;0.30;0.30;;;;;;;;;;4968579;28;20692;-65
2022/08/20 13:19:04;;;;;;;0.30;0.30;;;;;;;;;;4968399;28;20203;-65
2022/08/20 13:21:32;;;;;;;0.30;0.30;;;;;;;;;;4957683;28;20669;-65
2022/08/20 13:24:00;;;;;;;0.25;0.25;;;;;;;;;;4968933;28;20269;-65
2022/08/20 13:26:27;;;;;;;0.20;0.20;;;;;;;;;;4968543;28;20230;-65
2022/08/20 13:28:54;;;;;;;0.30;0.30;;;;;;;;;;4968882;28;20206;-66
2022/08/20 13:31:21;;;;;;;0.40;0.40;;;;;;;;;;4968959;28;20207;-64
2022/08/20 13:33:48;;;;;;;0.47;0.47;;;;;;;;;;4969144;28;20569;-65
2022/08/20 13:36:15;;;;;;;0.40;0.40;;;;;;;;;;4969345;28;20261;-67
2022/08/20 13:38:43;;;;;;;0.50;0.50;;;;;;;;;;4972083;28;20207;-65
2022/08/20 13:41:10;;;;;;;0.60;0.60;;;;;;;;;;4972965;28;20211;-65
2022/08/20 13:43:37;;;;;;;0.50;0.50;;;;;;;;;;4972400;28;20222;-65
2022/08/20 13:46:05;;;;;;;0.60;0.60;;;;;;;;;;4972808;28;20210;-64
2022/08/20 13:48:32;;;;;;;0.40;0.40;;;;;;;;;;4972190;28;20265;-66
2022/08/20 13:50:59;;;;;;;0.60;0.60;;;;;;;;;;4972676;28;20226;-65
2022/08/20 13:53:26;;;;;;;1.08;1.08;;;;;;;;;;4971971;28;20213;-65
2022/08/20 13:55:54;;;;;;;0.60;0.60;;;;;;;;;;4972402;28;20218;-65
2022/08/20 13:58:22;;;;;;;0.75;0.75;;;;;;;;;;4963712;28;20207;-69
2022/08/20 14:00:49;;;;;;;0.82;0.82;;;;;;;;;;4972558;28;20297;-66
2022/08/20 14:03:17;;;;;;;0.50;0.50;;;;;;;;;;4970521;28;20933;-66
2022/08/20 14:05:44;;;;;;;0.73;0.73;;;;;;;;;;4971742;28;20657;-67
2022/08/20 14:08:14;;;;;;;0.73;0.73;;;;;;;;;;4972215;28;20229;-66
2022/08/20 14:10:41;;;;;;;0.73;0.73;;;;;;;;;;4972774;28;20206;-66
2022/08/20 14:13:10;;;;;;;0.88;0.88;;;;;;;;;;4979549;28;20240;-66
2022/08/20 14:15:37;;;;;;;0.82;0.82;;;;;;;;;;4971542;28;20684;-64
2022/08/20 14:18:05;;;;;;;0.63;0.63;;;;;;;;;;4971605;28;20349;-65
2022/08/20 14:20:33;;;;;;;3.03;0.70;;;;;;;;;;4971575;28;20316;-65
2022/08/20 14:23:01;;;;;;;0.60;0.60;;;;;;;;;;4972115;28;20210;-66
2022/08/20 14:25:29;;;;;;;0.50;0.50;;;;;;;;;;4972308;28;20686;-66
2022/08/20 14:27:56;;;;;;;0.90;0.90;;;;;;;;;;4971533;28;20226;-66
2022/08/20 14:30:26;;;;;;;0.75;0.75;;;;;;;;;;4972031;28;20266;-66
2022/08/20 14:32:54;;;;;;;0.90;0.90;;;;;;;;;;4972641;28;20207;-66
2022/08/20 14:35:21;;;;;;;0.70;0.70;;;;;;;;;;4972011;28;20763;-66
2022/08/20 14:37:50;;;;;;;1.10;1.10;;;;;;;;;;4972678;28;20202;-65
2022/08/20 14:40:18;;;;;;;1.70;0.80;;;;;;;;;;4971330;28;20281;-66
2022/08/20 14:42:48;;;;;;;0.80;0.80;;;;;;;;;;4972350;28;20203;-66
2022/08/20 14:45:15;;;;;;;1.00;1.00;;;;;;;;;;4972087;28;20297;-65
2022/08/20 14:47:45;;;;;;;1.00;1.00;;;;;;;;;;4972213;28;20280;-65
2022/08/20 14:50:13;;;;;;;0.90;0.90;;;;;;;;;;4970721;28;20214;-66
2022/08/20 14:52:40;;;;;;;0.68;0.68;;;;;;;;;;4971879;28;20206;-66
2022/08/20 14:55:09;;;;;;;0.88;0.88;;;;;;;;;;4967559;28;20207;-65
2022/08/20 14:57:36;;;;;;;0.90;0.90;;;;;;;;;;4968576;28;20236;-66
2022/08/20 15:00:04;;;;;;;0.70;0.70;;;;;;;;;;4970114;28;20310;-66